KEAR

Kearney Regional Airport

Kearney, Nebraska, USA
METAR KEAR 161256Z AUTO 32006KT 10SM CLR M02/M07 A2976 RMK AO2 SLP090 T10221072 FZRANO
Observed Flight Rules
Dec-16 @ 12:56 UTC (2 hours ago) Visual Flight Rules
Wind Visibility Clouds
320° at 6 knots 10 miles
  • Clear skies
Temperatures Readings
Current -2°C / 28°F
Dewpoint -7°C / 19°F
Humidity 69%
Altimeter 29.76" Hg
Pressure 1009 hPa
Elevation 649
METAR KEAR 161256Z AUTO 32006KT 10SM CLR M02/M07 A2976 RMK AO2 SLP090 T10221072 FZRANO
Observed Flight Rules
Dec-16 @ 12:56 UTC
(2 hours ago)
VFR
Wind Visibility
320° at 6 knots 10 miles
Clouds
  • Clear skies
Temperature Dewpoint
-2°C / 28°F -7°C / 19°F
Humidity Altimeter Pressure
69% 29.76" Hg 1009 hPa